Forestville, Michigan
Current Conditions -  °F | °C
As of 9:19 PM on Friday 31 Oct 2014 (Local Time) from KBAX Reporting Station
Overcast Overcast  
Wind Chill: 23°   Ceiling: 2500
Heat Index: 35°   Visibility: 10mi
Dew Point: 33°   Wind: 25mph
Humidity: 90%   Direction: 10°N
Pressure: 30.15"   Gusts: 39mph
Location:  43.66°N, 82.61°W
Report Text: KBAX 010119Z AUTO 01022G34KT 10SM SCT019 BKN025 OVC035 02/00 A3015 RMK AO2 T00180003
Loading
Personal Weather Stations






























Interactive Weather Map
Tropical Storm Tracking
New forecast layout! Learn more

10-Day Weather Forecast

Advertisements
Track Severe Weather on mobile